Time;durP1;ratioP1;P1;durP2;ratioP2;P2;SDS_P1;SDS_P2;PMS_P1;PMS_P2;Temp;Humidity;BMP_temperature;BMP_pressure;BME280_temperature;BME280_humidity;BME280_pressure;Samples;Min_cycle;Max_cycle;Signal;HPM_P1;HPM_P2
2021/01/04 00:00:37;;;;;;;;;;;3.80;99.90;;;;;;10407842;28;19965;-65
2021/01/04 00:05:42;;;;;;;;;;;3.90;99.90;;;;;;10407433;28;20028;-66
2021/01/04 00:10:43;;;;;;;;;;;3.90;99.90;;;;;;10406819;28;20344;-65
2021/01/04 00:15:47;;;;;;;;;;;3.80;99.90;;;;;;10407409;28;20000;-65
2021/01/04 00:20:49;;;;;;;;;;;3.90;99.90;;;;;;10406897;28;19935;-65
2021/01/04 00:25:53;;;;;;;;;;;3.90;99.90;;;;;;10408021;28;20012;-65
2021/01/04 00:31:09;;;;;;;;;;;4.00;99.90;;;;;;10405704;28;20015;-65
2021/01/04 00:36:18;;;;;;;;;;;4.00;99.90;;;;;;10419298;28;20019;-66
2021/01/04 00:41:21;;;;;;;;;;;4.10;99.90;;;;;;10404408;28;20417;-66
2021/01/04 00:46:24;;;;;;;;;;;4.10;99.90;;;;;;10404880;28;20020;-65
2021/01/04 00:51:37;;;;;;;;;;;4.10;99.90;;;;;;10404396;28;20357;-66
2021/01/04 00:56:57;;;;;;;;;;;4.10;99.90;;;;;;10404202;28;19931;-65
2021/01/04 01:01:58;;;;;;;;;;;4.10;99.90;;;;;;10403661;28;20329;-65
2021/01/04 01:07:08;;;;;;;;;;;4.10;99.90;;;;;;10400476;28;20011;-65
2021/01/04 01:12:13;;;;;;;;;;;4.00;99.90;;;;;;10407600;28;19925;-65
2021/01/04 01:17:17;;;;;;;;;;;4.00;99.90;;;;;;10404443;28;20006;-65
2021/01/04 01:22:28;;;;;;;;;;;4.10;99.90;;;;;;10403567;28;20036;-65
2021/01/04 01:27:44;;;;;;;;;;;4.10;99.90;;;;;;10383691;28;20404;-65
2021/01/04 01:33:04;;;;;;;;;;;4.10;99.90;;;;;;10401190;28;19981;-66
2021/01/04 01:38:25;;;;;;;;;;;4.10;99.90;;;;;;10399915;28;19932;-65
2021/01/04 01:43:39;;;;;;;;;;;4.10;99.90;;;;;;10402402;28;20420;-65
2021/01/04 01:49:04;;;;;;;;;;;4.00;99.90;;;;;;10404176;28;20178;-65
2021/01/04 01:54:41;;;;;;;;;;;4.00;99.90;;;;;;10392957;28;20369;-65
2021/01/04 02:00:01;;;;;;;;;;;3.80;99.90;;;;;;10324865;28;20416;-65
2021/01/04 02:05:27;;;;;;;;;;;3.80;99.90;;;;;;10402197;28;20389;-65
2021/01/04 02:10:34;;;;;;;;;;;4.00;99.90;;;;;;10388001;28;19980;-65
2021/01/04 02:15:55;;;;;;;;;;;3.90;99.90;;;;;;10402147;28;19925;-65
2021/01/04 02:21:16;;;;;;;;;;;3.90;99.90;;;;;;10402195;28;20227;-65
2021/01/04 02:26:20;;;;;;;;;;;3.80;99.90;;;;;;10398306;28;20610;-65
2021/01/04 02:31:23;;;;;;;;;;;3.80;99.90;;;;;;10397699;28;20464;-65
2021/01/04 02:36:25;;;;;;;;;;;3.70;99.90;;;;;;10400393;28;20008;-65
2021/01/04 02:41:34;;;;;;;;;;;3.80;99.90;;;;;;10401534;28;19925;-66
2021/01/04 02:46:38;;;;;;;;;;;3.90;99.90;;;;;;10401098;28;20012;-65
2021/01/04 02:51:41;;;;;;;;;;;3.90;99.90;;;;;;10401706;28;19926;-65
2021/01/04 02:56:51;;;;;;;;;;;3.90;99.90;;;;;;10402414;28;20020;-65
2021/01/04 03:02:02;;;;;;;;;;;3.80;99.90;;;;;;10433027;28;20024;-65
2021/01/04 03:07:04;;;;;;;;;;;3.80;99.90;;;;;;10418729;28;19929;-65
2021/01/04 03:12:08;;;;;;;;;;;3.70;99.90;;;;;;10418291;28;19925;-65
2021/01/04 03:17:28;;;;;;;;;;;3.70;99.90;;;;;;10417972;28;19929;-65
2021/01/04 03:22:29;;;;;;;;;;;3.80;99.90;;;;;;10417881;28;19960;-65
2021/01/04 03:27:32;;;;;;;;;;;3.80;99.90;;;;;;10417982;28;20015;-65
2021/01/04 03:32:33;;;;;;;;;;;3.70;99.90;;;;;;10417180;28;19960;-65
2021/01/04 03:37:34;;;;;;;;;;;3.70;99.90;;;;;;10417044;28;20012;-65
2021/01/04 03:42:36;;;;;;;;;;;3.60;99.90;;;;;;10417429;28;19971;-65
2021/01/04 03:47:38;;;;;;;;;;;3.60;99.90;;;;;;10417211;28;19956;-65
2021/01/04 03:52:39;;;;;;;;;;;3.60;99.90;;;;;;10416063;28;19925;-65
2021/01/04 03:57:40;;;;;;;;;;;3.60;99.90;;;;;;10416916;28;20451;-65
2021/01/04 04:02:42;;;;;;;;;;;3.60;99.90;;;;;;10413817;28;20419;-66
2021/01/04 04:07:44;;;;;;;;;;;3.60;99.90;;;;;;10411125;28;20413;-65
2021/01/04 04:12:46;;;;;;;;;;;3.50;99.90;;;;;;10408311;28;19925;-65
2021/01/04 04:17:47;;;;;;;;;;;3.50;99.90;;;;;;10408333;28;19925;-65
2021/01/04 04:22:49;;;;;;;;;;;3.50;99.90;;;;;;10408430;28;19925;-65
2021/01/04 04:27:51;;;;;;;;;;;3.60;99.90;;;;;;10408253;28;19980;-65
2021/01/04 04:32:53;;;;;;;;;;;3.50;99.90;;;;;;10407626;28;20353;-65
2021/01/04 04:37:55;;;;;;;;;;;3.50;99.90;;;;;;10408764;28;19975;-65
2021/01/04 04:43:01;;;;;;;;;;;3.40;99.90;;;;;;10407263;28;19972;-65
2021/01/04 04:48:05;;;;;;;;;;;3.30;99.90;;;;;;10383050;28;20048;-65
2021/01/04 04:53:20;;;;;;;;;;;3.30;99.90;;;;;;10406707;28;19932;-65
2021/01/04 04:58:40;;;;;;;;;;;3.30;99.90;;;;;;10406481;28;19932;-65
2021/01/04 05:04:03;;;;;;;;;;;3.30;99.90;;;;;;10406632;28;20165;-65
2021/01/04 05:09:17;;;;;;;;;;;3.40;99.90;;;;;;10421439;28;19971;-65
2021/01/04 05:14:22;;;;;;;;;;;3.40;99.90;;;;;;10406206;28;19925;-65
2021/01/04 05:19:41;;;;;;;;;;;3.30;99.90;;;;;;10406280;28;20008;-65
2021/01/04 05:24:49;;;;;;;;;;;3.30;99.90;;;;;;10438297;28;19968;-65
2021/01/04 05:29:50;;;;;;;;;;;3.30;99.90;;;;;;10404746;28;20386;-65
2021/01/04 05:34:52;;;;;;;;;;;3.20;99.90;;;;;;10405710;28;20011;-65
2021/01/04 05:40:02;;;;;;;;;;;3.20;99.90;;;;;;10405351;28;20011;-65
2021/01/04 05:45:20;;;;;;;;;;;3.30;99.90;;;;;;10406228;28;19933;-65
2021/01/04 05:50:24;;;;;;;;;;;3.40;99.90;;;;;;10404605;28;19952;-65
2021/01/04 05:55:25;;;;;;;;;;;3.40;99.90;;;;;;10405530;28;19976;-65
2021/01/04 06:00:27;;;;;;;;;;;3.40;99.90;;;;;;10404993;28;19976;-66
2021/01/04 06:05:28;;;;;;;;;;;3.40;99.90;;;;;;10405383;28;20008;-65
2021/01/04 06:10:29;;;;;;;;;;;3.30;99.90;;;;;;10404815;28;19972;-65
2021/01/04 06:15:42;;;;;;;;;;;3.30;99.90;;;;;;10404801;28;19925;-65
2021/01/04 06:20:43;;;;;;;;;;;3.30;99.90;;;;;;10404113;28;19968;-65
2021/01/04 06:25:45;;;;;;;;;;;3.30;99.90;;;;;;10404019;28;20008;-65
2021/01/04 06:30:56;;;;;;;;;;;3.40;99.90;;;;;;10404908;28;20028;-65
2021/01/04 06:36:01;;;;;;;;;;;3.40;99.90;;;;;;10393145;28;20020;-65
2021/01/04 06:41:14;;;;;;;;;;;3.40;99.90;;;;;;10410975;28;19969;-65
2021/01/04 06:46:22;;;;;;;;;;;3.50;99.90;;;;;;10411910;28;19983;-65
2021/01/04 06:51:42;;;;;;;;;;;3.50;99.90;;;;;;10411662;28;20401;-65
2021/01/04 06:57:06;;;;;;;;;;;3.50;99.90;;;;;;10411882;28;20011;-65
2021/01/04 07:02:20;;;;;;;;;;;3.50;99.90;;;;;;10409326;28;19937;-65
2021/01/04 07:07:24;;;;;;;;;;;3.50;99.90;;;;;;10411288;28;19976;-65
2021/01/04 07:12:44;;;;;;;;;;;3.60;99.90;;;;;;10409993;28;20016;-65
2021/01/04 07:17:56;;;;;;;;;;;3.50;99.90;;;;;;10410847;28;19969;-65
2021/01/04 07:23:16;;;;;;;;;;;3.60;99.90;;;;;;10410693;28;19975;-65
2021/01/04 07:28:24;;;;;;;;;;;3.70;99.90;;;;;;10410985;28;19937;-65
2021/01/04 07:33:34;;;;;;;;;;;3.70;99.90;;;;;;10373665;28;19925;-65
2021/01/04 07:38:42;;;;;;;;;;;3.70;99.90;;;;;;10410926;28;20173;-65
2021/01/04 07:44:02;;;;;;;;;;;3.70;99.90;;;;;;10409502;28;19976;-65
2021/01/04 07:49:22;;;;;;;;;;;3.70;99.90;;;;;;10398902;28;20432;-65
2021/01/04 07:54:26;;;;;;;;;;;3.70;99.90;;;;;;10409709;28;19968;-65
2021/01/04 07:59:33;;;;;;;;;;;3.70;99.90;;;;;;10409326;28;19948;-65
2021/01/04 08:04:35;;;;;;;;;;;3.70;99.90;;;;;;10409089;28;20297;-65
2021/01/04 08:09:36;;;;;;;;;;;3.70;99.90;;;;;;10409677;28;20024;-65
2021/01/04 08:14:56;;;;;;;;;;;3.80;99.90;;;;;;10410438;28;19932;-65
2021/01/04 08:20:00;;;;;;;;;;;3.80;99.90;;;;;;10403304;28;20019;-66
2021/01/04 08:25:06;;;;;;;;;;;3.70;99.90;;;;;;10402750;28;19979;-65
2021/01/04 08:30:08;;;;;;;;;;;3.70;99.90;;;;;;10402123;28;19971;-66
2021/01/04 08:35:13;;;;;;;;;;;3.70;99.90;;;;;;10404621;28;20051;-65
2021/01/04 08:40:23;;;;;;;;;;;3.70;99.90;;;;;;10405910;28;20454;-65
2021/01/04 08:45:29;;;;;;;;;;;3.70;99.90;;;;;;10406522;28;20347;-65
2021/01/04 08:50:33;;;;;;;;;;;3.80;99.90;;;;;;10406641;28;19925;-65
2021/01/04 08:55:35;;;;;;;;;;;3.70;99.90;;;;;;10404893;28;19931;-66
2021/01/04 09:00:36;;;;;;;;;;;3.70;99.90;;;;;;10423191;28;19972;-68
2021/01/04 09:05:38;;;;;;;;;;;3.90;99.90;;;;;;10405632;28;19960;-68
2021/01/04 09:10:47;;;;;;;;;;;3.90;99.90;;;;;;10406507;28;20015;-68
2021/01/04 09:15:49;;;;;;;;;;;3.90;99.90;;;;;;10405183;28;19929;-68
2021/01/04 09:20:59;;;;;;;;;;;3.90;99.90;;;;;;10420868;28;20409;-68
2021/01/04 09:26:03;;;;;;;;;;;3.80;99.90;;;;;;10405185;28;19983;-68
2021/01/04 09:31:04;;;;;;;;;;;3.80;99.90;;;;;;10403105;28;19933;-68
2021/01/04 09:36:06;;;;;;;;;;;3.80;99.90;;;;;;10397271;28;20436;-68
2021/01/04 09:41:22;;;;;;;;;;;3.90;99.90;;;;;;10439984;28;19933;-68
2021/01/04 09:46:27;;;;;;;;;;;3.90;99.90;;;;;;10404539;28;20035;-68
2021/01/04 09:51:32;;;;;;;;;;;4.00;99.90;;;;;;10405109;28;19929;-68
2021/01/04 09:56:37;;;;;;;;;;;4.10;99.90;;;;;;10405360;28;20385;-68
2021/01/04 10:01:44;;;;;;;;;;;4.00;99.90;;;;;;10405473;28;19925;-68
2021/01/04 10:06:45;;;;;;;;;;;4.10;99.90;;;;;;10391467;28;20438;-68
2021/01/04 10:11:48;;;;;;;;;;;4.10;99.90;;;;;;10400341;28;19925;-68
2021/01/04 10:16:51;;;;;;;;;;;4.20;99.90;;;;;;10402375;28;20397;-68
2021/01/04 10:21:58;;;;;;;;;;;4.20;99.90;;;;;;10403555;28;19929;-68
2021/01/04 10:27:02;;;;;;;;;;;4.20;99.90;;;;;;10403743;28;20286;-68
2021/01/04 10:32:05;;;;;;;;;;;4.20;99.90;;;;;;10403037;28;19929;-68
2021/01/04 10:37:18;;;;;;;;;;;4.10;99.90;;;;;;10403735;28;19931;-68
2021/01/04 10:42:22;;;;;;;;;;;4.20;99.90;;;;;;10404298;28;19925;-68
2021/01/04 10:47:26;;;;;;;;;;;4.20;99.90;;;;;;10404311;28;19935;-68
2021/01/04 10:52:28;;;;;;;;;;;4.20;99.90;;;;;;10403291;28;20585;-68
2021/01/04 10:57:44;;;;;;;;;;;4.20;99.90;;;;;;10434868;28;19931;-68
2021/01/04 11:02:50;;;;;;;;;;;4.20;99.90;;;;;;10403240;28;20297;-68
2021/01/04 11:07:51;;;;;;;;;;;4.20;99.90;;;;;;10405058;28;19936;-68
2021/01/04 11:12:57;;;;;;;;;;;4.20;99.90;;;;;;10404210;28;19973;-68
2021/01/04 11:18:01;;;;;;;;;;;4.20;99.90;;;;;;10404384;28;19960;-68
2021/01/04 11:23:10;;;;;;;;;;;4.20;99.90;;;;;;10404230;28;19932;-68
2021/01/04 11:28:11;;;;;;;;;;;4.20;99.90;;;;;;10441469;28;19932;-68
2021/01/04 11:33:26;;;;;;;;;;;4.10;99.90;;;;;;10410107;28;20008;-69
2021/01/04 11:38:28;;;;;;;;;;;4.20;99.90;;;;;;10410941;28;20364;-68
2021/01/04 11:43:29;;;;;;;;;;;4.30;99.90;;;;;;10410515;28;19925;-68
2021/01/04 11:48:31;;;;;;;;;;;4.20;99.90;;;;;;10424949;28;19925;-68
2021/01/04 11:53:32;;;;;;;;;;;4.10;99.90;;;;;;10409074;28;19925;-68
2021/01/04 11:58:39;;;;;;;;;;;4.10;99.90;;;;;;10410215;28;19932;-68
2021/01/04 12:03:40;;;;;;;;;;;4.10;99.90;;;;;;10411148;28;19990;-68
2021/01/04 12:08:41;;;;;;;;;;;4.10;99.90;;;;;;10409887;28;19925;-68
2021/01/04 12:13:43;;;;;;;;;;;4.00;99.90;;;;;;10409672;28;20393;-68
2021/01/04 12:18:44;;;;;;;;;;;4.00;99.90;;;;;;10409624;28;20116;-68
2021/01/04 12:23:45;;;;;;;;;;;4.00;99.90;;;;;;10409242;28;19932;-68
2021/01/04 12:28:46;;;;;;;;;;;4.00;99.90;;;;;;10408982;28;19925;-68
2021/01/04 12:33:48;;;;;;;;;;;4.20;99.90;;;;;;10408534;28;19929;-68
2021/01/04 12:38:50;;;;;;;;;;;4.20;99.90;;;;;;10408501;28;19929;-68
2021/01/04 12:43:51;;;;;;;;;;;4.30;99.90;;;;;;10408465;28;20024;-68
2021/01/04 12:48:53;;;;;;;;;;;4.20;99.90;;;;;;10407194;28;20320;-69
2021/01/04 12:53:54;;;;;;;;;;;4.30;99.90;;;;;;10408097;28;20417;-68
2021/01/04 12:58:56;;;;;;;;;;;4.30;99.90;;;;;;10407296;28;19932;-69
2021/01/04 13:03:57;;;;;;;;;;;4.50;99.90;;;;;;10406705;28;20385;-68
2021/01/04 13:08:59;;;;;;;;;;;4.40;99.90;;;;;;10407192;28;20431;-68
2021/01/04 13:14:00;;;;;;;;;;;4.40;99.90;;;;;;10405786;28;20012;-68
2021/01/04 13:19:02;;;;;;;;;;;4.30;99.90;;;;;;10405318;28;20385;-68
2021/01/04 13:24:09;;;;;;;;;;;4.30;99.90;;;;;;10405916;28;19925;-69
2021/01/04 13:29:11;;;;;;;;;;;4.30;99.90;;;;;;10406830;28;19964;-68
2021/01/04 13:34:13;;;;;;;;;;;4.40;99.90;;;;;;10406117;28;20016;-68
2021/01/04 13:39:15;;;;;;;;;;;4.50;99.90;;;;;;10406283;28;20328;-68
2021/01/04 13:44:16;;;;;;;;;;;4.40;99.90;;;;;;10405970;28;20374;-69
2021/01/04 13:49:17;;;;;;;;;;;4.40;99.90;;;;;;10403419;28;19975;-68
2021/01/04 13:54:19;;;;;;;;;;;4.30;99.90;;;;;;10405542;28;20297;-68
2021/01/04 13:59:21;;;;;;;;;;;4.30;99.90;;;;;;10405538;28;20433;-68
2021/01/04 14:04:22;;;;;;;;;;;4.30;99.90;;;;;;10405114;28;19975;-68
2021/01/04 14:09:24;;;;;;;;;;;4.30;99.90;;;;;;10405639;28;20237;-68
2021/01/04 14:14:27;;;;;;;;;;;4.20;99.90;;;;;;10404920;28;20019;-68
2021/01/04 14:19:28;;;;;;;;;;;4.30;99.90;;;;;;10404283;28;20467;-68
2021/01/04 14:24:30;;;;;;;;;;;4.30;99.90;;;;;;10403368;28;19968;-68
2021/01/04 14:29:33;;;;;;;;;;;4.30;99.90;;;;;;10402597;28;19991;-69
2021/01/04 14:34:34;;;;;;;;;;;4.30;99.90;;;;;;10403461;28;20024;-68
2021/01/04 14:39:35;;;;;;;;;;;4.30;99.90;;;;;;10403259;28;19961;-68
2021/01/04 14:44:37;;;;;;;;;;;4.20;99.90;;;;;;10403854;28;20424;-69
2021/01/04 14:49:39;;;;;;;;;;;4.30;99.90;;;;;;10402182;28;20023;-68
2021/01/04 14:54:41;;;;;;;;;;;4.20;99.90;;;;;;10403350;28;20015;-68
2021/01/04 14:59:48;;;;;;;;;;;4.20;99.90;;;;;;10405368;28;20424;-68
2021/01/04 15:04:49;;;;;;;;;;;4.20;99.90;;;;;;10405247;28;19972;-68
2021/01/04 15:09:51;;;;;;;;;;;4.30;99.90;;;;;;10408222;28;19925;-68
2021/01/04 15:14:53;;;;;;;;;;;4.40;99.90;;;;;;10405918;28;20015;-69
2021/01/04 15:19:54;;;;;;;;;;;4.30;99.90;;;;;;10406421;28;20405;-69
2021/01/04 15:24:58;;;;;;;;;;;4.30;99.90;;;;;;10408664;28;19933;-69
2021/01/04 15:29:59;;;;;;;;;;;4.40;99.90;;;;;;10408509;28;19979;-69
2021/01/04 15:35:00;;;;;;;;;;;4.30;99.90;;;;;;10407806;28;19925;-68
2021/01/04 15:40:04;;;;;;;;;;;4.20;99.90;;;;;;10409215;28;19925;-68
2021/01/04 15:45:06;;;;;;;;;;;4.30;99.90;;;;;;10410562;28;19960;-68
2021/01/04 15:50:08;;;;;;;;;;;4.30;99.90;;;;;;10410360;28;19976;-68
2021/01/04 15:55:09;;;;;;;;;;;4.10;99.90;;;;;;10409649;28;19928;-68
2021/01/04 16:00:11;;;;;;;;;;;4.00;99.90;;;;;;10410357;28;19968;-68
2021/01/04 16:05:12;;;;;;;;;;;4.00;99.90;;;;;;10409680;28;20423;-68
2021/01/04 16:10:14;;;;;;;;;;;3.90;99.90;;;;;;10408983;28;20412;-68
2021/01/04 16:15:21;;;;;;;;;;;3.90;99.90;;;;;;10409313;28;19936;-68
2021/01/04 16:20:22;;;;;;;;;;;3.80;99.90;;;;;;10408133;28;19925;-68
2021/01/04 16:25:23;;;;;;;;;;;4.10;99.90;;;;;;10408759;28;19929;-68
2021/01/04 16:30:32;;;;;;;;;;;4.10;99.90;;;;;;10408608;28;20274;-68
2021/01/04 16:35:34;;;;;;;;;;;4.20;99.90;;;;;;10407917;28;20015;-68
2021/01/04 16:40:35;;;;;;;;;;;4.30;99.90;;;;;;10408590;28;19925;-68
2021/01/04 16:45:36;;;;;;;;;;;4.30;99.90;;;;;;10408223;28;20013;-68
2021/01/04 16:50:38;;;;;;;;;;;4.30;99.90;;;;;;10407402;28;19925;-68
2021/01/04 16:55:39;;;;;;;;;;;4.30;99.90;;;;;;10407907;28;19925;-68
2021/01/04 17:00:40;;;;;;;;;;;4.40;99.90;;;;;;10407761;28;20369;-68
2021/01/04 17:05:42;;;;;;;;;;;4.30;99.90;;;;;;10407505;28;19932;-68
2021/01/04 17:10:43;;;;;;;;;;;4.20;99.90;;;;;;10407395;28;20012;-68
2021/01/04 17:15:46;;;;;;;;;;;4.20;99.90;;;;;;10407157;28;20012;-68
2021/01/04 17:20:47;;;;;;;;;;;4.10;99.90;;;;;;10406394;28;20143;-68
2021/01/04 17:25:48;;;;;;;;;;;4.20;99.90;;;;;;10406925;28;19947;-68
2021/01/04 17:30:50;;;;;;;;;;;4.00;99.90;;;;;;10406703;28;19929;-68
2021/01/04 17:35:52;;;;;;;;;;;4.00;99.90;;;;;;10405586;28;20378;-68
2021/01/04 17:40:53;;;;;;;;;;;4.10;99.90;;;;;;10406615;28;19932;-68
2021/01/04 17:45:56;;;;;;;;;;;4.20;99.90;;;;;;10406180;28;19933;-68
2021/01/04 17:50:57;;;;;;;;;;;4.20;99.90;;;;;;10405012;28;20233;-68
2021/01/04 17:55:58;;;;;;;;;;;4.20;99.90;;;;;;10406112;28;19929;-68
2021/01/04 18:01:01;;;;;;;;;;;4.20;99.90;;;;;;10405075;28;20359;-68
2021/01/04 18:06:03;;;;;;;;;;;4.20;99.90;;;;;;10404860;28;20376;-68
2021/01/04 18:11:04;;;;;;;;;;;4.20;99.90;;;;;;10405307;28;19968;-68
2021/01/04 18:16:06;;;;;;;;;;;4.20;99.90;;;;;;10404813;28;20420;-68
2021/01/04 18:21:20;;;;;;;;;;;4.20;99.90;;;;;;10405196;28;19932;-68
2021/01/04 18:26:25;;;;;;;;;;;4.10;99.90;;;;;;10405310;28;20366;-68
2021/01/04 18:31:28;;;;;;;;;;;4.00;99.90;;;;;;10404782;28;20004;-68
2021/01/04 18:36:30;;;;;;;;;;;3.90;99.90;;;;;;10410722;28;20020;-68
2021/01/04 18:41:32;;;;;;;;;;;4.00;99.90;;;;;;10413634;28;19972;-68
2021/01/04 18:46:33;;;;;;;;;;;4.10;99.90;;;;;;10412453;28;19931;-68
2021/01/04 18:51:36;;;;;;;;;;;4.00;99.90;;;;;;10412194;28;19925;-68
2021/01/04 18:56:38;;;;;;;;;;;4.00;99.90;;;;;;10412922;28;19932;-68
2021/01/04 19:01:40;;;;;;;;;;;4.00;99.90;;;;;;10412102;28;20350;-68
2021/01/04 19:06:41;;;;;;;;;;;4.00;99.90;;;;;;10412348;28;19925;-68
2021/01/04 19:11:43;;;;;;;;;;;4.20;99.90;;;;;;10411569;28;20328;-68
2021/01/04 19:16:49;;;;;;;;;;;4.10;99.90;;;;;;10411465;28;20003;-69
2021/01/04 19:21:50;;;;;;;;;;;4.00;99.90;;;;;;10411275;28;20061;-69
2021/01/04 19:26:55;;;;;;;;;;;4.20;99.90;;;;;;10410830;28;20055;-68
2021/01/04 19:32:01;;;;;;;;;;;4.30;99.90;;;;;;10410484;28;19975;-69
2021/01/04 19:37:10;;;;;;;;;;;4.20;99.90;;;;;;10411070;28;19932;-69
2021/01/04 19:42:13;;;;;;;;;;;4.20;99.90;;;;;;10411271;28;19960;-69
2021/01/04 19:47:15;;;;;;;;;;;4.20;99.90;;;;;;10409191;28;19960;-68
2021/01/04 19:52:17;;;;;;;;;;;4.30;99.90;;;;;;10410257;28;19975;-68
2021/01/04 19:57:18;;;;;;;;;;;4.30;99.90;;;;;;10410712;28;20170;-68
2021/01/04 20:02:19;;;;;;;;;;;4.10;99.90;;;;;;10409624;28;19933;-68
2021/01/04 20:07:21;;;;;;;;;;;4.10;99.90;;;;;;10409668;28;19979;-68
2021/01/04 20:12:23;;;;;;;;;;;4.10;99.90;;;;;;10409881;28;19976;-68
2021/01/04 20:17:24;;;;;;;;;;;4.20;99.90;;;;;;10410057;28;20039;-68
2021/01/04 20:22:25;;;;;;;;;;;4.30;99.90;;;;;;10409502;28;20015;-67
2021/01/04 20:27:26;;;;;;;;;;;4.20;99.90;;;;;;10409078;28;20008;-66
2021/01/04 20:32:28;;;;;;;;;;;4.20;99.90;;;;;;10408033;28;19976;-66
2021/01/04 20:37:29;;;;;;;;;;;4.20;99.90;;;;;;10408194;28;20025;-66
2021/01/04 20:42:30;;;;;;;;;;;4.20;99.90;;;;;;10408244;28;20023;-66
2021/01/04 20:47:32;;;;;;;;;;;4.30;99.90;;;;;;10406373;28;19991;-66
2021/01/04 20:52:33;;;;;;;;;;;4.30;99.90;;;;;;10437692;28;19979;-66
2021/01/04 20:57:34;;;;;;;;;;;4.30;99.90;;;;;;10406378;28;20007;-66
2021/01/04 21:02:36;;;;;;;;;;;4.20;99.90;;;;;;10405812;28;19929;-66
2021/01/04 21:07:37;;;;;;;;;;;4.00;99.90;;;;;;10405538;28;19925;-66
2021/01/04 21:12:38;;;;;;;;;;;4.10;99.90;;;;;;10410290;28;19952;-66
2021/01/04 21:17:40;;;;;;;;;;;4.10;99.90;;;;;;10405351;28;20036;-66
2021/01/04 21:22:41;;;;;;;;;;;4.00;99.90;;;;;;10405744;28;19925;-66
2021/01/04 21:27:42;;;;;;;;;;;4.10;99.90;;;;;;10404293;28;19925;-66
2021/01/04 21:32:44;;;;;;;;;;;4.20;99.90;;;;;;10403625;28;20444;-67
2021/01/04 21:37:48;;;;;;;;;;;4.20;99.90;;;;;;10404132;28;19969;-66
2021/01/04 21:42:50;;;;;;;;;;;4.20;99.90;;;;;;10404438;28;19925;-66
2021/01/04 21:47:51;;;;;;;;;;;4.20;99.90;;;;;;10402887;28;20019;-66
2021/01/04 21:52:52;;;;;;;;;;;4.10;99.90;;;;;;10404099;28;19929;-66
2021/01/04 21:57:54;;;;;;;;;;;4.10;99.90;;;;;;10405277;28;19940;-66
2021/01/04 22:02:55;;;;;;;;;;;4.10;99.90;;;;;;10405558;28;20032;-66
2021/01/04 22:07:56;;;;;;;;;;;4.10;99.90;;;;;;10405062;28;19964;-66
2021/01/04 22:12:58;;;;;;;;;;;4.20;99.90;;;;;;10402450;28;20043;-65
2021/01/04 22:17:59;;;;;;;;;;;4.30;99.90;;;;;;10403603;28;20022;-65
2021/01/04 22:23:01;;;;;;;;;;;4.30;99.90;;;;;;10400125;28;19940;-65
2021/01/04 22:28:04;;;;;;;;;;;4.20;99.90;;;;;;10400887;28;20003;-65
2021/01/04 22:33:05;;;;;;;;;;;4.30;99.90;;;;;;10403889;28;20540;-65
2021/01/04 22:38:06;;;;;;;;;;;4.30;99.90;;;;;;10404298;28;20015;-65
2021/01/04 22:43:07;;;;;;;;;;;4.20;99.90;;;;;;10404153;28;20016;-65
2021/01/04 22:48:11;;;;;;;;;;;4.20;99.90;;;;;;10404197;28;20297;-65
2021/01/04 22:53:12;;;;;;;;;;;4.20;99.90;;;;;;10403564;28;20412;-65
2021/01/04 22:58:13;;;;;;;;;;;4.40;99.90;;;;;;10403666;28;19983;-65
2021/01/04 23:03:15;;;;;;;;;;;4.40;99.90;;;;;;10403723;28;19992;-65
2021/01/04 23:08:17;;;;;;;;;;;4.50;99.90;;;;;;10404751;28;19968;-65
2021/01/04 23:13:20;;;;;;;;;;;4.50;99.90;;;;;;10402412;28;20015;-65
2021/01/04 23:18:22;;;;;;;;;;;4.50;99.90;;;;;;10403180;28;20007;-65
2021/01/04 23:23:23;;;;;;;;;;;4.40;99.90;;;;;;10409039;28;20001;-65
2021/01/04 23:28:24;;;;;;;;;;;4.40;99.90;;;;;;10424643;28;20152;-65
2021/01/04 23:33:26;;;;;;;;;;;4.40;99.90;;;;;;10410173;28;19972;-65
2021/01/04 23:38:31;;;;;;;;;;;4.30;99.90;;;;;;10423474;28;19925;-65
2021/01/04 23:43:32;;;;;;;;;;;4.20;99.90;;;;;;10424481;28;19972;-65
2021/01/04 23:48:34;;;;;;;;;;;4.20;99.90;;;;;;10408330;28;19999;-65
2021/01/04 23:53:35;;;;;;;;;;;4.20;99.90;;;;;;10423330;28;19968;-65
2021/01/04 23:58:36;;;;;;;;;;;4.30;99.90;;;;;;10408236;28;20012;-65
